Time;durP1;ratioP1;P1;durP2;ratioP2;P2;SDS_P1;SDS_P2;PMS_P1;PMS_P2;Temp;Humidity;BMP_temperature;BMP_pressure;BME280_temperature;BME280_humidity;BME280_pressure;Samples;Min_cycle;Max_cycle;Signal;HPM_P1;HPM_P2
2021/06/22 00:02:20;;;;;;;16.00;14.70;;;18.40;99.90;;;19.23;100.00;97369.63;5236342;28;20665;-62
2021/06/22 00:04:55;;;;;;;16.05;14.73;;;18.40;99.90;;;19.22;100.00;97361.84;5235518;28;20193;-62
2021/06/22 00:07:28;;;;;;;15.50;14.25;;;18.30;99.90;;;19.27;100.00;97368.81;5242836;28;20220;-62
2021/06/22 00:10:01;;;;;;;17.15;15.65;;;18.40;99.90;;;19.29;100.00;97369.72;5238412;28;20710;-61
2021/06/22 00:12:34;;;;;;;15.10;13.98;;;18.40;99.90;;;19.26;100.00;97369.69;5246862;28;20203;-63
2021/06/22 00:15:14;;;;;;;13.23;12.23;;;18.40;99.90;;;19.22;100.00;97365.28;5236439;28;20247;-61
2021/06/22 00:17:48;;;;;;;13.55;12.55;;;18.30;99.90;;;19.21;100.00;97368.75;5231976;28;20217;-62
2021/06/22 00:20:24;;;;;;;14.45;13.27;;;18.30;99.90;;;19.24;100.00;97370.50;5235998;28;20195;-61
2021/06/22 00:22:57;;;;;;;13.80;12.70;;;18.30;99.90;;;19.15;100.00;97349.66;5238511;28;20214;-62
2021/06/22 00:25:30;;;;;;;11.50;10.60;;;18.20;99.90;;;19.11;100.00;97338.34;5235707;28;20287;-63
2021/06/22 00:28:04;;;;;;;11.30;10.50;;;18.20;99.90;;;19.09;100.00;97335.75;5230807;28;20546;-62
2021/06/22 00:30:37;;;;;;;16.48;15.02;;;18.20;99.90;;;19.11;100.00;97323.69;5231259;28;20220;-62
2021/06/22 00:33:10;;;;;;;14.77;13.57;;;18.20;99.90;;;19.09;100.00;97329.69;5249609;28;20193;-62
2021/06/22 00:35:45;;;;;;;16.00;14.80;;;18.20;99.90;;;19.19;100.00;97333.28;5246900;28;20195;-62
2021/06/22 00:38:18;;;;;;;13.88;12.88;;;18.30;99.90;;;19.19;100.00;97341.06;5246222;28;20201;-62
2021/06/22 00:40:51;;;;;;;15.25;14.05;;;18.30;99.90;;;19.20;100.00;97348.88;5232498;28;20193;-62
2021/06/22 00:43:24;;;;;;;16.88;15.52;;;18.30;99.90;;;19.22;100.00;97357.50;5231266;28;20292;-62
2021/06/22 00:45:57;;;;;;;16.73;15.35;;;18.30;99.90;;;19.18;100.00;97355.75;5240446;28;20217;-63
2021/06/22 00:48:30;;;;;;;16.25;15.02;;;18.30;99.90;;;19.17;100.00;97361.75;5236514;28;20193;-62
2021/06/22 00:51:05;;;;;;;17.63;16.13;;;18.30;99.90;;;19.18;100.00;97368.69;5236942;28;20503;-62
2021/06/22 00:53:39;;;;;;;15.20;14.00;;;18.30;99.90;;;19.15;100.00;97371.25;5230002;28;20204;-61
2021/06/22 00:56:12;;;;;;;15.30;13.93;;;18.20;99.90;;;19.10;100.00;97367.69;5232404;28;20208;-61
2021/06/22 00:58:45;;;;;;;14.52;13.40;;;18.20;99.90;;;19.13;100.00;97366.03;5234813;28;20283;-62
2021/06/22 01:01:18;;;;;;;15.32;14.15;;;18.30;99.90;;;19.11;100.00;97353.88;5229292;28;20653;-60
2021/06/22 01:03:51;;;;;;;15.77;14.55;;;18.20;99.90;;;19.20;100.00;97372.19;5233420;28;20197;-61
2021/06/22 01:06:26;;;;;;;14.20;13.02;;;18.30;99.90;;;19.27;100.00;97368.81;5243365;28;20209;-62
2021/06/22 01:08:59;;;;;;;13.00;12.00;;;18.30;99.90;;;19.26;100.00;97358.44;5235417;28;20188;-62
2021/06/22 01:11:32;;;;;;;15.65;14.55;;;18.30;99.90;;;19.22;100.00;97347.16;5241284;28;20622;-62
2021/06/22 01:14:05;;;;;;;17.45;15.93;;;18.30;99.90;;;19.22;100.00;97349.75;5231194;28;20211;-62
2021/06/22 01:16:39;;;;;;;16.65;15.27;;;18.30;99.90;;;19.22;100.00;97359.25;5229612;28;20243;-61
2021/06/22 01:19:13;;;;;;;13.07;12.05;;;18.30;99.90;;;19.25;100.00;97357.56;5239649;28;20196;-60
2021/06/22 01:21:48;;;;;;;12.88;11.88;;;18.20;99.90;;;19.30;100.00;97353.31;5228657;28;20197;-61
2021/06/22 01:24:22;;;;;;;14.25;13.15;;;18.20;99.90;;;19.30;100.00;97355.91;5229272;28;20227;-60
2021/06/22 01:26:58;;;;;;;15.45;14.00;;;18.20;99.90;;;19.28;100.00;97361.91;5229565;28;20263;-64
2021/06/22 01:29:31;;;;;;;14.05;13.05;;;18.10;99.90;;;19.22;100.00;97367.88;5229983;28;20197;-61
2021/06/22 01:32:07;;;;;;;15.35;13.95;;;18.20;99.90;;;19.23;100.00;97359.28;5236000;28;20671;-62
2021/06/22 01:34:41;;;;;;;16.30;14.82;;;18.20;99.90;;;19.28;100.00;97362.78;5235495;28;20669;-62
2021/06/22 01:37:15;;;;;;;16.60;15.30;;;18.30;99.90;;;19.18;100.00;97371.28;5237622;28;20218;-62
2021/06/22 01:39:48;;;;;;;17.98;16.48;;;18.20;99.90;;;19.09;100.00;97368.56;5242009;28;20199;-61
2021/06/22 01:42:21;;;;;;;17.83;16.42;;;18.20;99.90;;;19.08;100.00;97353.84;5237542;28;20193;-63
2021/06/22 01:44:54;;;;;;;19.33;17.48;;;18.20;99.90;;;19.09;100.00;97355.59;5229765;28;20193;-61
2021/06/22 01:47:27;;;;;;;21.83;19.85;;;18.20;99.90;;;19.03;100.00;97360.66;5235687;28;20708;-62
2021/06/22 01:50:03;;;;;;;20.55;18.85;;;18.20;99.90;;;19.07;100.00;97360.75;5231403;28;20216;-62
2021/06/22 01:52:38;;;;;;;24.85;22.55;;;18.10;99.90;;;19.13;100.00;97357.38;5232617;28;20189;-62
2021/06/22 01:58:07;;;;;;;22.98;21.08;;;18.30;99.90;;;19.11;100.00;97349.59;5235976;28;20190;-62
2021/06/22 02:00:42;;;;;;;23.45;21.15;;;18.20;99.90;;;19.18;100.00;97353.16;5231269;28;20200;-62
2021/06/22 02:03:17;;;;;;;26.92;24.25;;;18.20;99.90;;;19.14;100.00;97353.94;5231212;28;20196;-61
2021/06/22 02:05:50;;;;;;;22.25;20.35;;;18.20;99.90;;;19.16;100.00;97369.50;5230543;28;20223;-60
2021/06/22 02:08:25;;;;;;;22.98;20.92;;;18.20;99.90;;;19.20;100.00;97368.69;5245350;28;20197;-62
2021/06/22 02:10:58;;;;;;;23.98;21.80;;;18.20;99.90;;;19.20;100.00;97372.19;5251967;28;20592;-60
2021/06/22 02:13:31;;;;;;;26.05;23.83;;;18.20;99.90;;;19.14;100.00;97372.06;5237490;28;20694;-61
2021/06/22 02:16:05;;;;;;;25.13;22.92;;;18.10;99.90;;;19.07;100.00;97373.69;5237866;28;20208;-60
2021/06/22 02:18:38;;;;;;;26.25;23.92;;;18.10;99.90;;;19.08;100.00;97369.38;5231500;28;20193;-61
2021/06/22 02:21:12;;;;;;;26.00;23.75;;;18.10;99.90;;;19.03;100.00;97366.75;5233377;28;20201;-62
2021/06/22 02:23:47;;;;;;;23.33;21.23;;;18.10;99.90;;;19.09;100.00;97372.00;5232159;28;20188;-62
2021/06/22 02:26:20;;;;;;;27.35;24.80;;;18.10;99.90;;;19.09;100.00;97376.34;5246336;28;20718;-62
2021/06/22 02:28:53;;;;;;;26.38;23.85;;;18.10;99.90;;;19.12;100.00;97386.75;5243910;28;20192;-61
2021/06/22 02:31:26;;;;;;;24.10;21.73;;;18.20;99.90;;;19.13;100.00;97385.88;5235589;28;20503;-62
2021/06/22 02:33:59;;;;;;;27.85;25.25;;;18.20;99.90;;;19.12;100.00;97389.34;5228159;28;20197;-62
2021/06/22 02:36:32;;;;;;;27.33;24.88;;;18.10;99.90;;;19.12;100.00;97381.56;5230940;28;20906;-60
2021/06/22 02:39:07;;;;;;;28.13;25.40;;;18.20;99.90;;;19.04;100.00;97388.34;5233100;28;20645;-62
2021/06/22 02:41:40;;;;;;;25.08;22.70;;;18.10;99.90;;;19.08;100.00;97392.69;5238541;28;20192;-62
2021/06/22 02:44:13;;;;;;;25.45;23.25;;;18.20;99.90;;;19.09;100.00;97397.06;5234860;28;20376;-60
2021/06/22 02:46:46;;;;;;;25.00;22.80;;;18.20;99.90;;;19.09;100.00;97390.16;5236326;28;20738;-62
2021/06/22 02:49:19;;;;;;;24.83;22.67;;;18.10;99.90;;;19.15;100.00;97391.09;5245050;28;20201;-60
2021/06/22 02:51:52;;;;;;;23.40;21.48;;;18.20;99.90;;;19.15;100.00;97398.88;5227990;28;20223;-62
2021/06/22 02:54:27;;;;;;;21.83;19.83;;;18.20;99.90;;;19.12;100.00;97405.75;5226684;28;20205;-62
2021/06/22 02:57:00;;;;;;;22.48;20.58;;;18.20;99.90;;;19.14;100.00;97403.16;5235249;28;20219;-61
2021/06/22 02:59:33;;;;;;;24.38;22.13;;;18.10;99.90;;;19.16;100.00;97404.06;5229925;28;20192;-62
2021/06/22 03:02:07;;;;;;;21.60;19.65;;;18.10;99.90;;;19.15;100.00;97402.34;5231207;28;20198;-62
2021/06/22 03:04:40;;;;;;;21.40;19.58;;;18.10;99.90;;;19.19;100.00;97401.53;5235746;28;20208;-62
2021/06/22 03:07:13;;;;;;;25.83;23.15;;;18.20;99.90;;;19.20;100.00;97400.69;5245124;28;20219;-62
2021/06/22 03:09:48;;;;;;;23.42;21.33;;;18.20;99.90;;;19.23;100.00;97395.56;5234957;28;20189;-62
2021/06/22 03:12:21;;;;;;;27.60;23.40;;;18.20;99.90;;;19.15;100.00;97402.34;5229445;28;20219;-60
2021/06/22 03:14:54;;;;;;;23.35;21.35;;;18.10;99.90;;;19.10;100.00;97393.59;5230242;28;20209;-62
2021/06/22 03:17:27;;;;;;;22.73;20.73;;;18.10;99.90;;;19.13;100.00;97396.25;5238126;28;20213;-62
2021/06/22 03:20:01;;;;;;;20.67;18.88;;;18.10;99.90;;;19.16;100.00;97396.28;5246698;28;20192;-62
2021/06/22 03:22:34;;;;;;;25.73;23.27;;;18.20;99.90;;;19.08;100.00;97395.28;5234291;28;20226;-63
2021/06/22 03:25:11;;;;;;;22.73;20.67;;;18.10;99.90;;;19.11;100.00;97392.75;5225910;28;20566;-62
2021/06/22 03:27:44;;;;;;;25.60;22.90;;;18.10;99.90;;;19.08;100.00;97387.53;5226481;28;20221;-61
2021/06/22 03:30:18;;;;;;;21.63;19.67;;;18.00;99.90;;;19.06;100.00;97386.66;5234754;28;20196;-61
2021/06/22 03:32:51;;;;;;;21.30;19.25;;;18.00;99.90;;;19.03;100.00;97382.28;5229167;28;20219;-62
2021/06/22 03:35:29;;;;;;;22.25;20.15;;;18.00;99.90;;;18.93;100.00;97384.69;5225170;28;20204;-63
2021/06/22 03:38:02;;;;;;;21.13;19.35;;;17.90;99.90;;;18.83;100.00;97384.56;5238449;28;20659;-62
2021/06/22 03:40:37;;;;;;;18.42;16.85;;;17.80;99.90;;;18.80;100.00;97392.28;5245341;28;20205;-62
2021/06/22 03:43:10;;;;;;;20.48;18.70;;;17.80;99.90;;;18.88;100.00;97393.25;5228811;28;20208;-62
2021/06/22 03:45:43;;;;;;;20.17;18.38;;;17.90;99.90;;;18.83;100.00;97384.56;5231998;28;20766;-62
2021/06/22 03:48:16;;;;;;;19.92;18.08;;;17.90;99.90;;;18.84;100.00;97381.09;5235302;28;20684;-61
2021/06/22 03:50:49;;;;;;;19.98;17.13;;;17.80;99.90;;;18.69;100.00;97386.00;5226975;28;20200;-62
2021/06/22 03:53:22;;;;;;;18.20;16.70;;;17.60;99.90;;;18.61;100.00;97382.41;5231570;28;20193;-63
2021/06/22 03:55:56;;;;;;;22.20;20.08;;;17.50;99.90;;;18.56;100.00;97378.84;5240501;28;20217;-61
2021/06/22 03:58:29;;;;;;;21.15;19.13;;;17.60;99.90;;;18.56;100.00;97378.84;5226852;28;20196;-62
2021/06/22 04:01:03;;;;;;;17.60;16.20;;;17.60;99.90;;;18.71;100.00;97379.09;5231955;28;20192;-62
2021/06/22 04:03:36;;;;;;;15.60;14.38;;;17.60;99.90;;;18.77;100.00;97368.91;5245146;28;20193;-62
2021/06/22 04:06:09;;;;;;;14.30;13.20;;;17.70;99.90;;;18.70;100.00;97385.13;5233917;28;20219;-60
2021/06/22 04:08:43;;;;;;;13.63;12.57;;;17.60;99.90;;;18.59;99.52;97378.91;5240285;28;20198;-57
2021/06/22 04:11:17;;;;;;;12.63;11.73;;;17.50;99.90;;;18.56;100.00;97374.53;5242812;28;20729;-62
2021/06/22 04:13:50;;;;;;;14.85;13.65;;;17.50;99.90;;;18.55;100.00;97372.81;5228665;28;20217;-57
2021/06/22 04:16:23;;;;;;;15.45;14.15;;;17.50;99.90;;;18.58;100.00;97377.16;5225621;28;20213;-60
2021/06/22 04:18:56;;;;;;;14.73;13.52;;;17.60;99.90;;;18.58;99.88;97377.16;5238505;28;20550;-61
2021/06/22 04:21:29;;;;;;;15.35;14.15;;;17.60;99.90;;;18.70;100.00;97374.78;5227030;28;20197;-59
2021/06/22 04:24:02;;;;;;;16.02;14.73;;;17.60;99.90;;;18.82;100.00;97369.84;5225105;28;20200;-61
2021/06/22 04:26:37;;;;;;;17.58;16.17;;;17.70;99.90;;;18.96;100.00;97369.19;5233781;28;20220;-58
2021/06/22 04:29:10;;;;;;;18.00;16.58;;;17.90;99.90;;;18.97;99.66;97371.84;5229551;28;20197;-60
2021/06/22 04:31:43;;;;;;;20.13;18.33;;;17.90;99.90;;;19.05;99.87;97369.34;5237357;28;20228;-61
2021/06/22 04:34:17;;;;;;;18.80;17.20;;;18.00;99.90;;;19.02;97.53;97369.28;5228926;28;20614;-59
2021/06/22 04:36:50;;;;;;;17.15;15.77;;;18.00;99.90;;;19.27;100.00;97366.22;5225690;28;20220;-59
2021/06/22 04:39:23;;;;;;;17.77;16.17;;;18.10;99.90;;;19.36;98.20;97368.94;5235777;28;20203;-61
2021/06/22 04:41:57;;;;;;;17.20;15.88;;;18.20;99.90;;;19.36;98.14;97376.72;5242917;28;20284;-60
2021/06/22 04:44:30;;;;;;;17.73;16.30;;;18.30;99.90;;;19.51;99.42;97370.88;5228553;28;20669;-59
2021/06/22 04:47:04;;;;;;;17.92;16.33;;;18.30;99.90;;;19.48;98.15;97370.84;5238729;28;20219;-60
2021/06/22 04:49:37;;;;;;;17.20;15.75;;;18.40;99.90;;;19.53;98.82;97376.09;5232505;28;20201;-60
2021/06/22 04:52:11;;;;;;;17.52;15.93;;;18.40;99.90;;;19.59;98.35;97384.84;5226107;28;20225;-62
2021/06/22 04:54:44;;;;;;;17.23;15.82;;;18.40;99.90;;;19.59;97.27;97377.06;5232321;28;20197;-60
2021/06/22 04:57:20;;;;;;;16.38;14.90;;;18.40;99.90;;;19.63;98.61;97372.81;5244675;28;20217;-60
2021/06/22 04:59:54;;;;;;;15.63;14.43;;;18.40;99.90;;;19.55;99.12;97372.69;5233282;28;20194;-59
2021/06/22 05:02:27;;;;;;;16.00;14.70;;;18.50;99.90;;;19.56;99.11;97373.56;5239162;28;20192;-63
2021/06/22 05:05:00;;;;;;;16.17;14.98;;;18.40;99.90;;;19.41;96.14;97374.22;5242596;28;20234;-60
2021/06/22 05:07:33;;;;;;;16.88;15.43;;;18.30;99.90;;;19.39;96.58;97385.41;5241632;28;20221;-60
2021/06/22 05:10:08;;;;;;;17.50;16.05;;;18.30;99.90;;;19.30;95.98;97384.41;5246213;28;20184;-60
2021/06/22 05:12:45;;;;;;;16.35;14.88;;;18.20;99.90;;;19.39;98.93;97383.69;5243211;28;20603;-62
2021/06/22 05:15:23;;;;;;;18.48;16.77;;;18.30;99.90;;;19.40;97.72;97376.78;5234782;28;20247;-60
2021/06/22 05:17:57;;;;;;;18.58;17.08;;;18.30;99.90;;;19.48;97.90;97375.16;5242796;28;20196;-62
2021/06/22 05:20:30;;;;;;;18.33;16.73;;;18.50;99.90;;;19.52;97.53;97375.25;5237776;28;20201;-64
2021/06/22 05:23:03;;;;;;;16.70;15.30;;;18.50;99.90;;;19.63;99.75;97374.50;5248640;28;20284;-60
2021/06/22 05:25:36;;;;;;;17.92;16.33;;;18.60;99.90;;;19.60;96.32;97385.69;5228703;28;20197;-62
2021/06/22 05:28:11;;;;;;;18.23;16.65;;;18.50;99.90;;;19.51;96.18;97375.22;5236854;28;20197;-62
2021/06/22 05:30:44;;;;;;;17.98;16.50;;;18.50;99.90;;;19.56;96.55;97379.59;5244460;28;20204;-61
2021/06/22 05:33:17;;;;;;;17.25;15.82;;;18.50;99.90;;;19.50;95.20;97378.66;5244940;28;20243;-61
2021/06/22 05:35:50;;;;;;;19.05;17.45;;;18.40;99.90;;;19.73;95.35;97374.69;5235934;28;20300;-56
2021/06/22 05:38:23;;;;;;;15.57;14.27;;;18.50;99.90;;;19.67;95.16;97378.94;5240089;28;20344;-62
2021/06/22 05:40:56;;;;;;;16.60;15.27;;;18.60;99.90;;;19.59;95.10;97376.19;5247418;28;20199;-62
2021/06/22 05:43:30;;;;;;;17.77;16.27;;;18.60;99.90;;;19.67;95.24;97381.53;5242329;28;20202;-62
2021/06/22 05:46:03;;;;;;;16.92;15.43;;;18.70;99.90;;;19.78;95.97;97383.41;5230851;28;20216;-59
2021/06/22 05:48:36;;;;;;;16.05;14.75;;;18.70;99.90;;;19.73;94.35;97386.78;5242405;28;20578;-62
2021/06/22 05:51:09;;;;;;;17.63;16.05;;;18.70;99.90;;;20.10;96.88;97385.53;5239171;28;20207;-63
2021/06/22 05:53:43;;;;;;;14.98;13.73;;;19.10;99.90;;;20.55;95.15;97392.13;5238582;28;20584;-59
2021/06/22 05:56:16;;;;;;;15.77;14.38;;;19.40;99.90;;;20.61;88.81;97396.50;5241122;28;20223;-60
2021/06/22 05:58:50;;;;;;;14.35;13.13;;;19.50;99.90;;;20.85;90.55;97394.13;5246292;28;20215;-63
2021/06/22 06:01:23;;;;;;;13.48;12.32;;;19.70;99.90;;;21.20;89.44;97392.66;5242320;28;20204;-61
2021/06/22 06:03:56;;;;;;;13.25;12.18;;;19.90;99.90;;;21.54;86.89;97389.47;5242865;28;20199;-59
2021/06/22 06:06:29;;;;;;;12.40;11.40;;;20.10;99.90;;;21.64;85.79;97397.34;5235492;28;20767;-62
2021/06/22 06:09:03;;;;;;;11.65;10.75;;;20.20;99.90;;;21.70;86.19;97392.19;5238930;28;20193;-61
2021/06/22 06:11:36;;;;;;;10.95;10.02;;;20.40;99.90;;;22.10;86.67;97400.19;5235625;28;20205;-63
2021/06/22 06:14:10;;;;;;;10.45;9.63;;;20.70;99.90;;;22.24;85.61;97402.00;5238847;28;20730;-59
2021/06/22 06:16:43;;;;;;;10.55;9.77;;;20.80;99.90;;;22.18;79.44;97398.50;5232509;28;20319;-62
2021/06/22 06:19:17;;;;;;;10.38;9.57;;;20.80;99.90;;;22.01;83.15;97396.66;5243819;28;20230;-62
2021/06/22 06:21:51;;;;;;;9.70;8.90;;;20.60;99.90;;;22.02;85.82;97401.00;5235795;28;20196;-62
2021/06/22 06:24:24;;;;;;;10.73;9.88;;;20.60;99.90;;;21.91;83.22;97401.81;5230550;28;20235;-60
2021/06/22 06:27:03;;;;;;;10.65;9.75;;;20.60;99.90;;;21.74;83.57;97399.13;5240368;28;20610;-63
2021/06/22 06:29:45;;;;;;;10.95;10.05;;;20.50;99.90;;;21.94;86.64;97394.88;5230042;28;20323;-62
2021/06/22 06:32:18;;;;;;;9.52;8.82;;;20.60;99.90;;;22.19;83.29;97400.25;5235392;28;20661;-65
2021/06/22 06:34:51;;;;;;;9.40;8.57;;;20.80;99.90;;;22.25;80.93;97397.66;5243529;28;20236;-62
2021/06/22 06:37:24;;;;;;;8.38;7.75;;;20.90;99.90;;;22.64;83.19;97404.72;5235516;28;20225;-63
2021/06/22 06:39:57;;;;;;;8.10;7.50;;;21.00;99.90;;;22.76;82.60;97403.84;5244876;28;20188;-62
2021/06/22 06:42:31;;;;;;;7.60;7.00;;;21.10;99.90;;;22.87;81.78;97411.69;5228650;28;20331;-62
2021/06/22 06:45:08;;;;;;;7.82;7.22;;;21.30;99.90;;;22.84;83.75;97415.16;5232465;28;20642;-62
2021/06/22 06:47:41;;;;;;;8.05;7.43;;;21.40;99.90;;;22.82;81.88;97422.09;5242803;28;20217;-62
2021/06/22 06:50:15;;;;;;;8.55;7.85;;;21.40;99.90;;;22.74;82.04;97416.00;5243498;28;20203;-62
2021/06/22 06:52:48;;;;;;;8.10;7.35;;;21.30;99.90;;;22.61;81.69;97422.06;5243857;28;20256;-63
2021/06/22 06:55:28;;;;;;;8.25;7.45;;;21.20;99.90;;;22.43;79.99;97418.56;5235343;28;20202;-64
2021/06/22 06:58:04;;;;;;;6.93;6.30;;;21.20;99.90;;;22.43;83.64;97415.06;5240805;28;20192;-62
2021/06/22 07:00:40;;;;;;;7.10;6.55;;;21.10;99.90;;;22.41;84.24;97415.06;5231578;28;20195;-63
2021/06/22 07:03:13;;;;;;;7.40;6.70;;;21.10;99.90;;;22.59;84.81;97415.97;5245013;28;20288;-66
2021/06/22 07:05:46;;;;;;;7.68;7.07;;;21.10;99.90;;;22.49;83.22;97410.75;5228106;28;20304;-62
2021/06/22 07:08:22;;;;;;;7.60;7.10;;;21.20;99.90;;;22.70;80.79;97411.66;5235284;28;20204;-64
2021/06/22 07:10:56;;;;;;;7.68;7.07;;;21.50;99.90;;;22.89;80.87;97418.66;5232776;28;20274;-64
2021/06/22 07:13:29;;;;;;;7.57;6.88;;;21.60;99.90;;;23.41;79.90;97425.66;5234914;28;20220;-63
2021/06/22 07:16:04;;;;;;;7.13;6.63;;;22.00;99.90;;;23.83;77.93;97429.94;5236217;28;20221;-64
2021/06/22 07:18:39;;;;;;;7.63;7.03;;;22.20;99.90;;;24.00;76.03;97436.84;5231219;28;20573;-62
2021/06/22 07:21:12;;;;;;;7.30;6.70;;;22.40;99.90;;;23.87;76.86;97429.97;5238285;28;20584;-67
2021/06/22 07:23:45;;;;;;;7.28;6.68;;;22.40;99.90;;;23.94;76.95;97426.44;5236751;28;20199;-65
2021/06/22 07:26:38;;;;;;;8.30;7.50;;;22.30;99.90;;;23.95;75.45;97421.22;5238479;28;20623;-64
2021/06/22 07:29:11;;;;;;;8.55;7.85;;;22.40;99.90;;;23.87;74.72;97424.72;5244388;28;20192;-63
2021/06/22 07:31:45;;;;;;;7.03;6.43;;;22.50;99.90;;;24.33;76.10;97421.97;5235375;28;20212;-63
2021/06/22 07:34:19;;;;;;;6.95;6.03;;;23.00;99.90;;;24.87;71.68;97423.41;5242648;28;20303;-65
2021/06/22 07:36:52;;;;;;;5.57;5.18;;;23.60;99.90;;;25.60;70.42;97415.84;5233169;28;20220;-63
2021/06/22 07:39:25;;;;;;;5.63;5.22;;;24.10;99.90;;;25.60;68.71;97418.47;5238148;28;20207;-64
2021/06/22 07:41:58;;;;;;;4.15;3.75;;;24.00;99.90;;;25.66;68.74;97417.56;5235446;28;20201;-64
2021/06/22 07:44:31;;;;;;;4.47;4.07;;;23.90;99.90;;;25.32;66.91;97417.84;5237568;28;20199;-65
2021/06/22 07:47:06;;;;;;;4.50;4.20;;;23.70;99.90;;;25.50;68.58;97425.56;5237357;28;20220;-63
2021/06/22 07:49:39;;;;;;;5.53;4.85;;;23.60;99.90;;;25.16;68.43;97424.97;5236565;28;20199;-63
2021/06/22 07:52:12;;;;;;;4.80;4.45;;;23.50;99.90;;;24.83;69.37;97421.69;5233716;28;20292;-67
2021/06/22 07:54:47;;;;;;;4.45;4.15;;;23.10;99.90;;;24.84;70.51;97417.31;5244458;28;20545;-64
2021/06/22 07:57:20;;;;;;;4.43;4.13;;;23.10;99.90;;;24.99;71.25;97421.59;5239646;28;20215;-63
2021/06/22 07:59:53;;;;;;;4.35;3.78;;;23.30;99.90;;;25.42;69.50;97419.53;5242800;28;20195;-63
2021/06/22 08:02:27;;;;;;;4.20;3.80;;;23.70;99.90;;;25.63;68.06;97416.69;5235020;28;20199;-61
2021/06/22 08:05:00;;;;;;;4.00;3.67;;;23.70;99.90;;;25.74;66.42;97423.59;5240466;28;20739;-64
2021/06/22 08:07:33;;;;;;;3.45;3.15;;;23.80;99.90;;;26.06;66.38;97426.75;5242809;28;20307;-64
2021/06/22 08:10:08;;;;;;;3.67;3.42;;;24.00;99.90;;;26.39;63.67;97429.84;5234537;28;20275;-64
2021/06/22 08:12:41;;;;;;;3.63;3.33;;;24.30;99.90;;;26.34;62.39;97436.91;5237407;28;20191;-66
2021/06/22 08:15:16;;;;;;;3.55;3.25;;;24.30;99.90;;;26.11;64.52;97444.19;5237895;28;20225;-64
2021/06/22 08:17:51;;;;;;;4.05;3.75;;;24.20;99.90;;;25.97;65.35;97447.81;5237170;28;20261;-63
2021/06/22 08:20:24;;;;;;;3.55;3.35;;;24.10;99.90;;;25.76;66.04;97442.78;5240236;28;20602;-65
2021/06/22 08:22:59;;;;;;;4.25;3.95;;;23.80;99.90;;;25.73;66.28;97442.81;5240715;28;20552;-64
2021/06/22 08:25:34;;;;;;;4.93;3.55;;;23.70;99.90;;;25.42;66.83;97458.78;5238977;28;20594;-63
2021/06/22 08:28:08;;;;;;;3.92;3.63;;;23.40;99.90;;;25.20;67.92;97462.44;5239431;28;20200;-63
2021/06/22 08:30:41;;;;;;;4.30;3.95;;;23.30;99.90;;;24.89;68.61;97460.88;5235767;28;20216;-64
2021/06/22 08:33:16;;;;;;;3.95;3.65;;;23.00;99.90;;;24.71;68.67;97463.59;5239505;28;20205;-65
2021/06/22 08:35:49;;;;;;;4.18;3.88;;;22.70;99.90;;;24.50;70.15;97469.81;5246441;28;20223;-63
2021/06/22 08:38:22;;;;;;;4.50;4.10;;;22.60;99.90;;;24.28;70.88;97469.84;5236166;28;20291;-64
2021/06/22 08:40:55;;;;;;;4.40;4.05;;;22.50;99.90;;;24.09;71.95;97472.53;5248270;28;20237;-65
2021/06/22 08:43:29;;;;;;;5.28;4.78;;;22.40;99.90;;;23.71;75.52;97461.28;5235904;28;20197;-63
2021/06/22 08:46:03;;;;;;;5.47;4.97;;;22.30;99.90;;;23.57;78.22;97456.03;5248126;28;20216;-63
2021/06/22 08:48:38;;;;;;;6.78;6.18;;;22.30;99.90;;;23.25;79.36;97450.84;5231829;28;20628;-62
2021/06/22 08:51:11;;;;;;;6.55;5.80;;;22.10;99.90;;;23.15;82.03;97450.00;5247506;28;20206;-62
2021/06/22 08:53:45;;;;;;;6.57;6.07;;;22.10;99.90;;;22.92;82.76;97449.94;5236303;28;20225;-65
2021/06/22 08:56:18;;;;;;;6.63;6.10;;;22.00;99.90;;;22.88;85.34;97456.00;5244581;28;20583;-63
2021/06/22 08:58:51;;;;;;;7.53;6.88;;;22.00;99.90;;;22.86;86.18;97457.75;5243705;28;20603;-62
2021/06/22 09:01:24;;;;;;;7.70;7.10;;;22.00;99.90;;;22.90;85.91;97454.25;5243083;28;20192;-62
2021/06/22 09:03:58;;;;;;;7.70;7.20;;;22.10;99.90;;;22.90;85.75;97459.47;5249434;28;20189;-63
2021/06/22 09:06:41;;;;;;;7.32;6.82;;;22.10;99.90;;;23.00;86.82;97460.38;5236192;28;20590;-62
2021/06/22 09:09:15;;;;;;;8.10;7.50;;;22.30;99.90;;;23.11;85.71;97463.88;5237006;28;20207;-62
2021/06/22 09:12:07;;;;;;;7.90;7.30;;;22.30;99.90;;;23.13;84.29;97466.50;5241826;28;20586;-63
2021/06/22 09:14:42;;;;;;;8.93;8.32;;;22.30;99.90;;;23.04;82.64;97466.50;5234884;28;20231;-62
2021/06/22 09:17:15;;;;;;;8.20;7.57;;;22.20;99.90;;;23.13;84.34;97464.75;5232358;28;20227;-62
2021/06/22 09:19:52;;;;;;;7.88;7.28;;;22.30;99.90;;;23.46;83.70;97467.38;5238516;28;20196;-63
2021/06/22 09:22:27;;;;;;;7.65;7.00;;;22.50;99.90;;;23.60;83.47;97457.78;5240645;28;20207;-63
2021/06/22 09:25:02;;;;;;;6.82;6.22;;;22.60;99.90;;;23.75;81.92;97463.03;5239840;28;20287;-62
2021/06/22 09:27:51;;;;;;;6.60;5.93;;;22.70;99.90;;;23.70;80.41;97469.09;5237517;28;20613;-61
2021/06/22 09:30:44;;;;;;;6.30;5.82;;;22.70;99.90;;;23.61;79.78;97465.63;5234740;28;20589;-62
2021/06/22 09:33:26;;;;;;;6.88;6.38;;;22.60;99.90;;;23.69;80.12;97476.03;5239485;28;20190;-63
2021/06/22 09:36:05;;;;;;;6.03;5.60;;;22.60;99.90;;;23.59;80.31;97466.50;5241973;28;20673;-64
2021/06/22 09:38:42;;;;;;;6.43;5.93;;;22.60;99.90;;;23.54;80.32;97469.09;5230022;28;20200;-63
2021/06/22 09:41:27;;;;;;;6.95;6.40;;;22.50;99.90;;;23.60;80.65;97478.66;5232926;28;20197;-62
2021/06/22 09:44:05;;;;;;;5.38;4.97;;;22.50;99.90;;;23.66;80.08;97476.03;5244205;28;20274;-62
2021/06/22 09:46:41;;;;;;;5.88;5.50;;;22.50;99.90;;;23.56;78.96;97476.94;5241222;28;20220;-63
2021/06/22 09:49:24;;;;;;;6.05;5.47;;;22.50;99.90;;;23.51;80.61;97474.31;5234899;28;20197;-64
2021/06/22 09:52:27;;;;;;;5.97;5.57;;;22.50;99.90;;;23.52;79.92;97480.41;5234915;28;20653;-63
2021/06/22 09:55:00;;;;;;;4.50;4.20;;;22.40;99.90;;;23.39;80.11;97479.56;5234594;28;20231;-63
2021/06/22 09:57:33;;;;;;;5.60;5.20;;;22.40;99.90;;;23.49;79.31;97480.41;5244743;28;20224;-63
2021/06/22 10:00:08;;;;;;;5.90;5.40;;;22.50;99.90;;;23.60;79.28;97479.53;5243274;28;20196;-64
2021/06/22 10:02:50;;;;;;;5.72;5.22;;;22.60;99.90;;;23.89;79.33;97488.22;5240213;28;20201;-64
2021/06/22 10:05:23;;;;;;;5.00;4.60;;;22.70;99.90;;;24.07;76.33;97490.81;5241807;28;20196;-64
2021/06/22 10:08:01;;;;;;;5.57;5.07;;;22.80;99.90;;;24.19;75.76;97490.78;5229759;28;20228;-63
2021/06/22 10:10:38;;;;;;;5.38;4.97;;;23.00;99.90;;;24.33;75.57;97492.50;5234832;28;20200;-64
2021/06/22 10:13:40;;;;;;;6.32;5.78;;;23.10;99.90;;;24.74;73.47;97489.72;5235478;28;20207;-63
2021/06/22 10:16:21;;;;;;;7.30;6.22;;;23.60;99.90;;;25.11;71.36;97495.59;5237015;28;20219;-64
2021/06/22 10:18:55;;;;;;;5.63;5.22;;;24.20;99.90;;;25.01;70.41;97499.19;5246496;28;20192;-64
2021/06/22 10:21:30;;;;;;;5.60;5.10;;;24.20;99.90;;;25.15;70.18;97502.59;5238217;28;20208;-63
2021/06/22 10:24:05;;;;;;;4.25;3.85;;;24.20;99.90;;;25.26;64.38;97502.50;5243226;28;20200;-63
2021/06/22 10:26:38;;;;;;;3.85;3.53;;;24.10;99.90;;;25.15;67.37;97506.94;5238679;28;20582;-64
2021/06/22 10:29:12;;;;;;;4.45;4.05;;;24.00;99.90;;;25.33;67.37;97503.34;5242301;28;20288;-64
2021/06/22 10:31:46;;;;;;;4.43;4.13;;;24.20;99.90;;;25.56;68.18;97509.28;5236739;28;20630;-63
2021/06/22 10:34:20;;;;;;;5.47;5.05;;;24.40;99.90;;;25.81;66.47;97509.03;5238669;28;20644;-63
2021/06/22 10:36:58;;;;;;;5.63;5.13;;;24.50;99.90;;;25.92;66.67;97506.34;5242041;28;20576;-64
2021/06/22 10:39:42;;;;;;;5.93;5.25;;;24.70;99.90;;;25.75;66.40;97511.72;5233937;28;20204;-64
2021/06/22 10:42:15;;;;;;;5.35;4.88;;;24.70;99.90;;;25.71;67.17;97513.50;5241550;28;20226;-63